createdAt,value
2022-12-31T00:02:21.296Z,1.92
2022-12-31T00:04:51.202Z,2.00
2022-12-31T00:07:23.227Z,2.00
2022-12-31T00:09:53.216Z,1.90
2022-12-31T00:12:23.662Z,1.90
2022-12-31T00:14:53.392Z,1.85
2022-12-31T00:17:23.439Z,2.10
2022-12-31T00:19:53.922Z,2.00
2022-12-31T00:22:25.920Z,2.33
2022-12-31T00:24:56.115Z,2.30
2022-12-31T00:27:26.115Z,2.40
2022-12-31T00:29:59.506Z,2.25
2022-12-31T00:32:34.550Z,2.17
2022-12-31T00:35:04.575Z,2.08
2022-12-31T00:37:36.921Z,2.30
2022-12-31T00:40:08.352Z,2.15
2022-12-31T00:42:38.748Z,2.53
2022-12-31T00:45:10.598Z,2.10
2022-12-31T00:47:41.179Z,2.20
2022-12-31T00:50:11.866Z,2.10
2022-12-31T00:52:44.005Z,2.13
2022-12-31T00:55:14.528Z,2.30
2022-12-31T00:57:44.982Z,2.17
2022-12-31T01:00:16.778Z,2.00
2022-12-31T01:02:46.938Z,2.10
2022-12-31T01:05:16.925Z,2.13
2022-12-31T01:07:48.720Z,2.00
2022-12-31T01:10:39.634Z,2.22
2022-12-31T01:13:10.452Z,2.08
2022-12-31T01:15:42.196Z,2.38
2022-12-31T01:18:13.363Z,2.10
2022-12-31T01:20:46.234Z,2.05
2022-12-31T01:23:18.771Z,2.15
2022-12-31T01:25:48.516Z,2.05
2022-12-31T01:28:18.238Z,2.60
2022-12-31T01:30:48.560Z,2.28
2022-12-31T01:33:18.611Z,2.33
2022-12-31T01:35:49.012Z,1.98
2022-12-31T01:38:21.350Z,2.28
2022-12-31T01:40:51.694Z,2.15
2022-12-31T01:43:23.207Z,2.22
2022-12-31T01:45:57.386Z,2.25
2022-12-31T01:48:30.530Z,2.45
2022-12-31T01:51:01.119Z,2.15
2022-12-31T01:53:34.417Z,2.40
2022-12-31T01:56:06.654Z,2.25
2022-12-31T01:58:45.624Z,2.22
2022-12-31T02:01:24.282Z,2.20
2022-12-31T02:03:55.938Z,2.22
2022-12-31T02:06:33.328Z,2.10
2022-12-31T02:09:05.433Z,2.35
2022-12-31T02:11:38.517Z,2.45
2022-12-31T02:14:13.531Z,2.35
2022-12-31T02:16:55.374Z,2.15
2022-12-31T02:20:21.496Z,2.28
2022-12-31T02:23:33.380Z,2.10
2022-12-31T02:26:56.737Z,2.17
2022-12-31T02:30:19.575Z,2.50
2022-12-31T02:33:16.909Z,2.22
2022-12-31T02:35:54.651Z,2.40
2022-12-31T02:38:30.568Z,2.30
2022-12-31T02:41:01.398Z,2.20
2022-12-31T02:43:32.159Z,2.47
2022-12-31T02:46:14.326Z,2.35
2022-12-31T02:48:58.454Z,2.40
2022-12-31T02:51:45.479Z,2.55
2022-12-31T02:54:32.272Z,2.50
2022-12-31T02:57:14.910Z,2.40
2022-12-31T03:00:13.782Z,2.42
2022-12-31T03:02:47.424Z,2.63
2022-12-31T03:05:25.544Z,2.30
2022-12-31T03:07:57.376Z,2.80
2022-12-31T03:10:27.762Z,2.70
2022-12-31T03:12:56.797Z,2.70
2022-12-31T03:15:30.148Z,2.72
2022-12-31T03:18:06.853Z,2.72
2022-12-31T03:20:58.424Z,2.90
2022-12-31T03:23:32.673Z,2.70
2022-12-31T03:26:02.450Z,2.90
2022-12-31T03:28:33.680Z,2.50
2022-12-31T03:31:06.444Z,2.65
2022-12-31T03:33:39.641Z,2.58
2022-12-31T03:36:16.933Z,2.53
2022-12-31T03:38:52.473Z,2.70
2022-12-31T03:41:23.130Z,2.47
2022-12-31T03:43:53.597Z,2.78
2022-12-31T03:46:23.932Z,3.00
2022-12-31T03:48:54.176Z,2.95
2022-12-31T03:51:25.507Z,3.05
2022-12-31T03:53:55.648Z,2.78
2022-12-31T03:56:26.021Z,2.72
2022-12-31T03:58:56.466Z,2.60
2022-12-31T04:01:26.581Z,2.53
2022-12-31T04:03:56.579Z,2.80
2022-12-31T04:06:28.717Z,2.80
2022-12-31T04:08:59.105Z,2.95
2022-12-31T04:11:29.289Z,2.65
2022-12-31T04:14:00.350Z,2.70
2022-12-31T04:16:31.026Z,2.70
2022-12-31T04:19:01.007Z,2.75
2022-12-31T04:21:35.253Z,2.70
2022-12-31T04:24:06.149Z,2.58
2022-12-31T04:26:37.732Z,2.50
2022-12-31T04:29:08.100Z,2.70
2022-12-31T04:31:37.964Z,2.70
2022-12-31T04:34:08.485Z,3.03
2022-12-31T04:36:40.688Z,2.80
2022-12-31T04:39:10.741Z,2.67
2022-12-31T04:41:40.955Z,2.83
2022-12-31T04:44:11.097Z,2.80
2022-12-31T04:46:41.008Z,2.63
2022-12-31T04:49:11.026Z,3.17
2022-12-31T04:51:43.662Z,2.88
2022-12-31T04:54:14.234Z,2.60
2022-12-31T04:56:44.544Z,2.80
2022-12-31T04:59:14.955Z,2.83
2022-12-31T05:01:45.455Z,2.80
2022-12-31T05:04:15.609Z,3.30
2022-12-31T05:06:47.487Z,2.75
2022-12-31T05:09:18.113Z,2.70
2022-12-31T05:11:48.492Z,2.58
2022-12-31T05:14:19.211Z,2.80
2022-12-31T05:16:49.296Z,2.92
2022-12-31T05:19:19.467Z,2.47
2022-12-31T05:22:04.712Z,2.45
2022-12-31T05:24:35.199Z,3.00
2022-12-31T05:27:05.382Z,2.97
2022-12-31T05:29:36.112Z,2.72
2022-12-31T05:32:06.477Z,2.83
2022-12-31T05:34:36.902Z,2.92
2022-12-31T05:37:09.209Z,2.95
2022-12-31T05:39:38.966Z,2.90
2022-12-31T05:42:09.199Z,2.80
2022-12-31T05:44:38.871Z,2.78
2022-12-31T05:47:08.739Z,2.60
2022-12-31T05:49:38.842Z,2.60
2022-12-31T05:52:12.490Z,2.85
2022-12-31T05:54:42.708Z,2.63
2022-12-31T05:57:13.461Z,2.72
2022-12-31T05:59:43.701Z,2.50
2022-12-31T06:02:13.860Z,2.58
2022-12-31T06:04:44.235Z,2.83
2022-12-31T06:07:16.214Z,2.90
2022-12-31T06:09:46.510Z,2.85
2022-12-31T06:12:16.910Z,2.60
2022-12-31T06:14:47.398Z,2.53
2022-12-31T06:17:18.119Z,2.63
2022-12-31T06:19:49.597Z,2.58
2022-12-31T06:22:21.403Z,2.60
2022-12-31T06:24:51.805Z,2.75
2022-12-31T06:27:22.245Z,2.53
2022-12-31T06:29:52.439Z,2.63
2022-12-31T06:32:22.309Z,2.90
2022-12-31T06:34:52.008Z,2.72
2022-12-31T06:37:24.056Z,2.47
2022-12-31T06:39:53.668Z,2.83
2022-12-31T06:42:24.149Z,2.90
2022-12-31T06:44:54.478Z,2.92
2022-12-31T06:47:24.358Z,3.10
2022-12-31T06:49:54.733Z,2.95
2022-12-31T06:52:26.721Z,3.00
2022-12-31T06:54:57.089Z,2.65
2022-12-31T06:57:28.292Z,2.90
2022-12-31T06:59:59.323Z,3.05
2022-12-31T07:03:13.559Z,2.60
2022-12-31T07:05:53.164Z,2.97
2022-12-31T07:08:49.044Z,2.67
2022-12-31T07:11:27.928Z,2.47
2022-12-31T07:14:13.633Z,2.67
2022-12-31T07:17:04.038Z,2.55
2022-12-31T07:19:57.690Z,2.42
2022-12-31T07:22:29.322Z,2.53
2022-12-31T07:25:02.852Z,2.58
2022-12-31T07:28:08.597Z,2.50
2022-12-31T07:30:52.089Z,2.50
2022-12-31T07:33:42.886Z,2.88
2022-12-31T07:36:32.392Z,2.70
2022-12-31T07:39:12.260Z,2.17
2022-12-31T07:41:58.133Z,2.63
2022-12-31T07:45:01.061Z,2.40
2022-12-31T07:47:32.186Z,2.83
2022-12-31T07:50:02.709Z,2.67
2022-12-31T07:52:33.831Z,2.25
2022-12-31T07:55:03.419Z,2.60
2022-12-31T07:57:52.303Z,2.63
2022-12-31T08:00:24.378Z,2.80
2022-12-31T08:03:19.685Z,2.53
2022-12-31T08:06:02.575Z,2.45
2022-12-31T08:08:43.418Z,2.58
2022-12-31T08:11:28.090Z,2.50
2022-12-31T08:14:05.030Z,2.20
2022-12-31T08:16:35.497Z,2.20
2022-12-31T08:19:06.538Z,2.53
2022-12-31T08:21:49.093Z,2.50
2022-12-31T08:24:31.901Z,2.30
2022-12-31T08:27:15.686Z,2.30
2022-12-31T08:30:00.453Z,2.25
2022-12-31T08:32:43.606Z,2.45
2022-12-31T08:35:35.194Z,2.03
2022-12-31T08:38:17.119Z,2.17
2022-12-31T08:41:01.953Z,2.30
2022-12-31T08:43:52.887Z,2.10
2022-12-31T08:46:33.854Z,2.30
2022-12-31T08:49:04.327Z,2.35
2022-12-31T08:51:35.280Z,2.30
2022-12-31T08:54:06.445Z,2.53
2022-12-31T08:56:50.302Z,2.42
2022-12-31T08:59:40.914Z,2.28
2022-12-31T09:03:00.473Z,2.33
2022-12-31T09:05:42.888Z,2.13
2022-12-31T09:08:27.827Z,2.30
2022-12-31T09:11:06.759Z,2.38
2022-12-31T09:13:56.879Z,2.65
2022-12-31T09:16:40.832Z,2.67
2022-12-31T09:19:14.218Z,2.60
2022-12-31T09:21:46.350Z,2.50
2022-12-31T09:24:18.846Z,2.63
2022-12-31T09:27:06.941Z,2.72
2022-12-31T09:29:56.455Z,2.72
2022-12-31T09:32:43.717Z,2.80
2022-12-31T09:35:32.448Z,3.05
2022-12-31T09:38:12.836Z,2.75
2022-12-31T09:41:00.809Z,2.85
2022-12-31T09:44:27.919Z,2.67
2022-12-31T09:48:02.005Z,2.63
2022-12-31T09:51:06.015Z,2.67
2022-12-31T09:54:22.023Z,2.60
2022-12-31T09:57:21.232Z,2.33
2022-12-31T10:00:04.851Z,2.40
2022-12-31T10:03:18.921Z,2.70
2022-12-31T10:06:20.771Z,2.30
2022-12-31T10:09:34.175Z,2.60
2022-12-31T10:12:44.853Z,2.65
2022-12-31T10:16:07.600Z,2.40
2022-12-31T10:19:11.743Z,2.70
2022-12-31T10:22:00.905Z,2.53
2022-12-31T10:24:54.449Z,2.78
2022-12-31T10:27:48.711Z,2.80
2022-12-31T10:30:21.582Z,3.17
2022-12-31T10:33:11.683Z,3.22
2022-12-31T10:35:51.697Z,3.42
2022-12-31T10:38:38.565Z,3.00
2022-12-31T10:42:06.145Z,3.00
2022-12-31T10:45:34.276Z,2.85
2022-12-31T10:48:45.977Z,2.47
2022-12-31T10:52:10.976Z,2.97
2022-12-31T10:55:40.517Z,2.85
2022-12-31T10:59:03.416Z,2.63
2022-12-31T11:01:51.079Z,2.90
2022-12-31T11:05:15.343Z,2.70
2022-12-31T11:08:09.183Z,2.53
2022-12-31T11:11:30.936Z,2.70
2022-12-31T11:14:44.327Z,2.80
2022-12-31T11:17:34.916Z,2.83
2022-12-31T11:20:44.754Z,3.10
2022-12-31T11:23:36.785Z,2.70
2022-12-31T11:26:27.618Z,2.60
2022-12-31T11:29:26.921Z,2.83
2022-12-31T11:32:16.406Z,2.78
2022-12-31T11:35:30.870Z,2.72
2022-12-31T11:38:18.131Z,2.80
2022-12-31T11:41:03.000Z,2.40
2022-12-31T11:43:41.816Z,2.58
2022-12-31T11:47:00.615Z,2.70
2022-12-31T11:49:54.195Z,2.60
2022-12-31T11:52:53.616Z,2.88
2022-12-31T11:55:41.807Z,2.85
2022-12-31T11:58:18.477Z,2.90
2022-12-31T12:00:58.920Z,3.20
2022-12-31T12:03:30.270Z,3.33
2022-12-31T12:06:01.640Z,3.05
2022-12-31T12:08:35.300Z,2.60
2022-12-31T12:11:19.221Z,3.33
2022-12-31T12:13:49.718Z,3.17
2022-12-31T12:16:24.984Z,2.85
2022-12-31T12:19:06.452Z,3.22
2022-12-31T12:21:37.512Z,3.20
2022-12-31T12:24:22.913Z,2.72
2022-12-31T12:26:53.892Z,2.63
2022-12-31T12:29:26.470Z,2.70
2022-12-31T12:32:04.811Z,3.10
2022-12-31T12:34:40.900Z,2.70
2022-12-31T12:37:32.977Z,2.42
2022-12-31T12:40:05.999Z,2.83
2022-12-31T12:42:37.503Z,3.38
2022-12-31T12:45:17.450Z,2.85
2022-12-31T12:47:56.967Z,2.47
2022-12-31T12:50:38.885Z,3.00
2022-12-31T12:53:31.343Z,2.80
2022-12-31T12:56:19.129Z,2.70
2022-12-31T12:59:12.318Z,2.60
2022-12-31T13:01:56.030Z,2.38
2022-12-31T13:05:05.805Z,2.90
2022-12-31T13:07:54.664Z,2.60
2022-12-31T13:10:52.439Z,2.47
2022-12-31T13:13:34.879Z,2.60
2022-12-31T13:16:17.621Z,2.42
2022-12-31T13:19:01.330Z,2.25
2022-12-31T13:21:49.563Z,2.45
2022-12-31T13:24:46.253Z,3.00
2022-12-31T13:27:28.030Z,2.60
2022-12-31T13:30:04.235Z,2.40
2022-12-31T13:32:45.084Z,2.90
2022-12-31T13:35:30.385Z,2.42
2022-12-31T13:38:09.170Z,2.72
2022-12-31T13:40:52.272Z,2.30
2022-12-31T13:43:35.889Z,2.30
2022-12-31T13:46:18.989Z,2.58
2022-12-31T13:48:55.978Z,2.60
2022-12-31T13:51:43.034Z,2.40
2022-12-31T13:54:36.379Z,2.60
2022-12-31T13:57:20.061Z,2.35
2022-12-31T13:59:59.486Z,2.67
2022-12-31T14:02:40.312Z,2.90
2022-12-31T14:05:24.335Z,2.83
2022-12-31T14:07:59.955Z,2.70
2022-12-31T14:10:45.384Z,2.72
2022-12-31T14:14:00.560Z,2.63
2022-12-31T14:16:46.097Z,2.67
2022-12-31T14:19:34.183Z,2.45
2022-12-31T14:22:19.190Z,2.60
2022-12-31T14:24:53.093Z,2.58
2022-12-31T14:27:32.600Z,2.42
2022-12-31T14:30:08.367Z,2.50
2022-12-31T14:33:14.653Z,2.30
2022-12-31T14:36:22.262Z,2.53
2022-12-31T14:39:28.028Z,2.35
2022-12-31T14:42:21.024Z,2.40
2022-12-31T14:45:20.156Z,2.65
2022-12-31T14:47:58.327Z,2.58
2022-12-31T14:50:32.155Z,2.65
2022-12-31T14:53:20.214Z,2.50
2022-12-31T14:56:01.968Z,2.47
2022-12-31T14:58:38.789Z,2.30
2022-12-31T15:01:26.641Z,2.67
2022-12-31T15:04:00.121Z,2.60
2022-12-31T15:06:57.158Z,2.50
2022-12-31T15:09:52.811Z,2.25
2022-12-31T15:12:51.350Z,2.40
2022-12-31T15:15:40.799Z,2.38
2022-12-31T15:18:34.160Z,2.35
2022-12-31T15:21:49.466Z,2.40
2022-12-31T15:24:25.644Z,2.30
2022-12-31T15:26:58.949Z,2.33
2022-12-31T15:29:34.467Z,2.30
2022-12-31T15:32:10.215Z,2.80
2022-12-31T15:34:42.452Z,2.60
2022-12-31T15:37:33.897Z,2.38
2022-12-31T15:40:25.463Z,2.42
2022-12-31T15:43:03.488Z,2.20
2022-12-31T15:45:40.730Z,2.10
2022-12-31T15:48:22.453Z,2.20
2022-12-31T15:51:00.322Z,1.98
2022-12-31T15:53:36.065Z,2.30
2022-12-31T15:56:09.751Z,2.22
2022-12-31T15:58:40.635Z,2.40
2022-12-31T16:01:19.008Z,2.70
2022-12-31T16:03:54.091Z,2.30
2022-12-31T16:06:30.129Z,2.50
2022-12-31T16:09:01.639Z,2.35
2022-12-31T16:11:37.979Z,2.30
2022-12-31T16:14:08.442Z,2.13
2022-12-31T16:16:38.308Z,2.35
2022-12-31T16:19:30.650Z,2.50
2022-12-31T16:22:11.654Z,2.35
2022-12-31T16:25:02.914Z,2.38
2022-12-31T16:27:33.978Z,2.28
2022-12-31T16:30:07.519Z,2.50
2022-12-31T16:32:41.105Z,2.40
2022-12-31T16:35:27.004Z,2.25
2022-12-31T16:38:17.246Z,2.40
2022-12-31T16:41:09.628Z,2.50
2022-12-31T16:43:41.295Z,2.58
2022-12-31T16:46:20.624Z,2.78
2022-12-31T16:48:56.556Z,2.33
2022-12-31T16:51:31.930Z,2.75
2022-12-31T16:54:05.424Z,2.53
2022-12-31T16:56:40.806Z,2.60
2022-12-31T16:59:24.190Z,2.90
2022-12-31T17:01:56.307Z,2.60
2022-12-31T17:04:27.803Z,2.67
2022-12-31T17:07:18.141Z,2.47
2022-12-31T17:09:50.009Z,2.75
2022-12-31T17:12:21.326Z,2.83
2022-12-31T17:14:53.750Z,2.58
2022-12-31T17:17:28.434Z,2.40
2022-12-31T17:20:03.152Z,2.85
2022-12-31T17:22:38.340Z,2.58
2022-12-31T17:25:25.348Z,2.33
2022-12-31T17:28:00.580Z,2.67
2022-12-31T17:30:42.861Z,2.70
2022-12-31T17:33:33.684Z,2.25
2022-12-31T17:36:26.239Z,2.50
2022-12-31T17:38:56.253Z,2.67
2022-12-31T17:41:30.425Z,2.28
2022-12-31T17:44:01.097Z,2.28
2022-12-31T17:46:32.153Z,2.20
2022-12-31T17:49:05.419Z,2.67
2022-12-31T17:51:36.781Z,2.60
2022-12-31T17:54:14.365Z,2.53
2022-12-31T17:56:47.049Z,2.60
2022-12-31T17:59:21.336Z,2.42
2022-12-31T18:01:52.594Z,2.50
2022-12-31T18:04:23.419Z,2.50
2022-12-31T18:06:53.795Z,2.45
2022-12-31T18:09:24.236Z,2.33
2022-12-31T18:12:01.401Z,2.33
2022-12-31T18:14:32.144Z,2.25
2022-12-31T18:17:04.305Z,2.47
2022-12-31T18:22:25.374Z,2.05
2022-12-31T18:24:56.826Z,2.45
2022-12-31T18:27:29.579Z,2.42
2022-12-31T18:30:04.430Z,2.20
2022-12-31T18:32:36.997Z,2.38
2022-12-31T18:35:33.245Z,2.10
2022-12-31T18:38:05.398Z,2.50
2022-12-31T18:40:35.881Z,2.47
2022-12-31T18:43:08.514Z,2.35
2022-12-31T18:45:38.911Z,2.53
2022-12-31T18:48:09.735Z,2.50
2022-12-31T18:50:40.566Z,2.53
2022-12-31T18:53:17.246Z,2.55
2022-12-31T18:55:51.272Z,2.50
2022-12-31T18:58:23.931Z,2.67
2022-12-31T19:00:55.339Z,2.40
2022-12-31T19:03:29.731Z,2.50
2022-12-31T19:06:00.322Z,2.60
2022-12-31T19:08:32.742Z,2.72
2022-12-31T19:11:04.161Z,2.50
2022-12-31T19:13:36.097Z,2.40
2022-12-31T19:16:08.223Z,2.60
2022-12-31T19:18:39.099Z,2.72
2022-12-31T19:21:14.173Z,2.58
2022-12-31T19:23:45.049Z,2.30
2022-12-31T19:26:19.847Z,2.47
2022-12-31T19:28:53.152Z,2.60
2022-12-31T19:31:23.573Z,2.85
2022-12-31T19:33:54.326Z,2.55
2022-12-31T19:36:25.018Z,2.60
2022-12-31T19:38:55.308Z,2.53
2022-12-31T19:41:25.789Z,2.33
2022-12-31T19:43:57.905Z,2.50
2022-12-31T19:46:28.742Z,2.40
2022-12-31T19:48:58.769Z,2.28
2022-12-31T19:51:29.477Z,2.80
2022-12-31T19:53:59.955Z,2.92
2022-12-31T19:56:29.948Z,2.80
2022-12-31T19:59:08.329Z,2.97
2022-12-31T20:01:39.363Z,3.40
2022-12-31T20:04:09.860Z,2.90
2022-12-31T20:06:40.436Z,2.75
2022-12-31T20:09:10.833Z,2.70
2022-12-31T20:11:41.387Z,2.45
2022-12-31T20:14:13.381Z,2.92
2022-12-31T20:16:43.935Z,2.80
2022-12-31T20:19:15.210Z,2.45
2022-12-31T20:21:45.442Z,2.35
2022-12-31T20:24:15.992Z,2.58
2022-12-31T20:26:46.228Z,3.00
2022-12-31T20:29:18.234Z,2.40
2022-12-31T20:31:48.208Z,2.40
2022-12-31T20:34:18.671Z,2.38
2022-12-31T20:36:49.343Z,2.63
2022-12-31T20:39:19.825Z,2.60
2022-12-31T20:41:50.644Z,2.38
2022-12-31T20:44:22.583Z,2.38
2022-12-31T20:46:52.587Z,2.40
2022-12-31T20:49:44.495Z,2.42
2022-12-31T20:52:13.882Z,2.30
2022-12-31T20:54:44.151Z,2.25
2022-12-31T20:57:14.544Z,2.38
2022-12-31T20:59:46.928Z,2.40
2022-12-31T21:02:21.369Z,2.28
2022-12-31T21:04:52.367Z,2.35
2022-12-31T21:07:23.156Z,2.67
2022-12-31T21:09:53.523Z,2.80
2022-12-31T21:12:40.611Z,2.50
2022-12-31T21:15:15.524Z,2.58
2022-12-31T21:17:46.025Z,2.60
2022-12-31T21:20:17.173Z,2.47
2022-12-31T21:22:47.576Z,2.50
2022-12-31T21:25:17.688Z,2.50
2022-12-31T21:27:48.088Z,2.67
2022-12-31T21:30:20.697Z,2.40
2022-12-31T21:32:52.165Z,2.58
2022-12-31T21:38:13.136Z,2.53
2022-12-31T21:40:45.206Z,2.50
2022-12-31T21:43:16.645Z,2.45
2022-12-31T21:45:49.259Z,2.15
2022-12-31T21:48:21.081Z,2.22
2022-12-31T21:50:52.559Z,2.25
2022-12-31T21:53:32.122Z,2.30
2022-12-31T21:56:12.805Z,2.35
2022-12-31T21:58:45.922Z,2.42
2022-12-31T22:01:39.987Z,2.45
2022-12-31T22:04:28.256Z,2.33
2022-12-31T22:07:00.146Z,2.38
2022-12-31T22:09:30.813Z,2.30
2022-12-31T22:12:01.141Z,2.40
2022-12-31T22:14:31.686Z,2.45
2022-12-31T22:17:04.050Z,2.47
2022-12-31T22:19:54.640Z,2.30
2022-12-31T22:22:24.881Z,2.35
2022-12-31T22:24:55.440Z,2.47
2022-12-31T22:27:29.044Z,1.98
2022-12-31T22:30:00.627Z,2.42
2022-12-31T22:32:32.482Z,2.47
2022-12-31T22:35:02.794Z,2.72
2022-12-31T22:37:56.350Z,2.35
2022-12-31T22:40:23.114Z,2.45
2022-12-31T22:42:52.967Z,2.28
2022-12-31T22:45:23.416Z,2.15
2022-12-31T22:47:54.683Z,2.15
2022-12-31T22:50:24.460Z,2.40
2022-12-31T22:52:54.303Z,2.25
2022-12-31T22:55:24.867Z,2.20
2022-12-31T22:57:54.797Z,2.45
2022-12-31T23:00:41.676Z,2.38
2022-12-31T23:03:14.378Z,2.30
2022-12-31T23:05:44.944Z,2.28
2022-12-31T23:08:22.318Z,2.20
2022-12-31T23:11:00.125Z,2.03
2022-12-31T23:13:51.197Z,2.38
2022-12-31T23:16:39.027Z,2.15
2022-12-31T23:19:28.246Z,2.10
2022-12-31T23:22:15.225Z,2.30
2022-12-31T23:24:45.785Z,2.20
2022-12-31T23:27:16.134Z,2.13
2022-12-31T23:29:47.654Z,2.25
2022-12-31T23:32:18.662Z,2.10
2022-12-31T23:34:50.179Z,2.50
2022-12-31T23:37:20.541Z,2.28
2022-12-31T23:39:50.960Z,2.40
2022-12-31T23:42:20.651Z,2.38
2022-12-31T23:44:50.927Z,2.35
2022-12-31T23:47:21.085Z,2.25
2022-12-31T23:49:52.652Z,2.33
2022-12-31T23:52:23.343Z,2.28
2022-12-31T23:54:53.562Z,2.30
2022-12-31T23:57:24.180Z,2.10
2022-12-31T23:59:54.394Z,2.10
